Time;durP1;ratioP1;P1;durP2;ratioP2;P2;SDS_P1;SDS_P2;PMS_P1;PMS_P2;Temp;Humidity;BMP_temperature;BMP_pressure;BME280_temperature;BME280_humidity;BME280_pressure;Samples;Min_cycle;Max_cycle;Signal;HPM_P1;HPM_P2
2023/02/26 00:01:12;;;;;;;3.20;1.60;;;;;;;3.29;38.04;101254.28;5107902;28;20051;-73
2023/02/26 00:03:40;;;;;;;3.28;1.55;;;;;;;3.25;37.91;101260.78;5108641;28;20032;-71
2023/02/26 00:06:09;;;;;;;3.95;1.80;;;;;;;3.25;38.02;101258.06;5109349;28;20451;-73
2023/02/26 00:08:37;;;;;;;5.53;1.70;;;;;;;3.24;38.01;101264.44;5089565;28;20043;-72
2023/02/26 00:11:07;;;;;;;3.67;1.48;;;;;;;3.25;37.75;101266.19;5108374;28;20406;-74
2023/02/26 00:13:38;;;;;;;3.78;1.60;;;;;;;3.25;37.82;101274.31;5096862;28;20058;-74
2023/02/26 00:16:18;;;;;;;4.85;1.63;;;;;;;3.25;37.66;101267.06;5106522;28;20039;-72
2023/02/26 00:18:47;;;;;;;3.45;1.40;;;;;;;3.22;37.92;101266.38;5094479;28;20101;-72
2023/02/26 00:21:17;;;;;;;2.65;1.38;;;;;;;3.22;37.71;101272.66;5108625;28;20425;-72
2023/02/26 00:23:45;;;;;;;5.55;1.40;;;;;;;3.20;37.80;101271.84;5089688;28;20062;-72
2023/02/26 00:26:13;;;;;;;3.67;1.60;;;;;;;3.19;38.03;101275.50;5108929;28;20528;-72
2023/02/26 00:28:43;;;;;;;3.53;1.70;;;;;;;3.19;37.77;101278.19;5108250;28;20044;-72
2023/02/26 00:31:11;;;;;;;2.70;1.48;;;;;;;3.19;37.82;101293.56;5099347;28;20395;-73
2023/02/26 00:33:40;;;;;;;3.03;1.50;;;;;;;3.18;37.85;101297.22;5089843;28;20447;-73
2023/02/26 00:36:20;;;;;;;3.53;1.42;;;;;;;3.20;37.92;101295.31;5082836;28;20039;-72
2023/02/26 00:39:01;;;;;;;2.92;1.33;;;;;;;3.17;37.92;101295.44;5091467;28;20499;-71
2023/02/26 00:41:29;;;;;;;3.60;1.40;;;;;;;3.14;38.12;101307.31;5089874;28;20039;-73
2023/02/26 00:43:59;;;;;;;4.25;1.98;;;;;;;3.16;38.09;101304.50;5081378;28;20075;-71
2023/02/26 00:46:36;;;;;;;4.28;1.65;;;;;;;3.16;37.89;101308.09;5075787;28;20044;-71
2023/02/26 00:49:18;;;;;;;2.95;1.40;;;;;;;3.16;38.00;101309.91;5087639;28;20048;-73
2023/02/26 00:51:51;;;;;;;2.70;1.30;;;;;;;3.12;38.04;101309.22;5079995;28;20135;-71
2023/02/26 00:54:21;;;;;;;3.47;1.80;;;;;;;3.10;37.89;101310.22;5088276;28;20043;-71
2023/02/26 00:56:51;;;;;;;4.40;1.42;;;;;;;3.09;37.88;101311.19;5108140;28;20032;-72
2023/02/26 00:59:21;;;;;;;4.13;1.50;;;;;;;3.08;38.01;101310.31;5088494;28;20085;-71
2023/02/26 01:01:50;;;;;;;2.97;1.33;;;;;;;3.07;38.11;101322.06;5107680;28;20044;-71
2023/02/26 01:04:22;;;;;;;3.28;1.40;;;;;;;3.07;38.21;101315.81;5101491;28;20433;-73
2023/02/26 01:06:52;;;;;;;3.17;1.40;;;;;;;3.06;38.47;101320.34;5089626;28;20059;-71
2023/02/26 01:09:25;;;;;;;3.53;1.67;;;;;;;3.03;38.07;101313.25;5085613;28;20043;-72
2023/02/26 01:11:55;;;;;;;4.55;1.40;;;;;;;3.01;38.14;101311.56;5088903;28;20059;-71
2023/02/26 01:14:25;;;;;;;5.43;1.55;;;;;;;3.00;38.13;101297.16;5106024;28;20491;-71
2023/02/26 01:16:59;;;;;;;3.45;1.40;;;;;;;3.00;38.11;101290.88;5084313;28;20051;-72
2023/02/26 01:19:34;;;;;;;3.75;1.70;;;;;;;2.99;38.07;101302.63;5087411;28;20093;-74
2023/02/26 01:22:09;;;;;;;3.08;1.15;;;;;;;2.97;38.23;101321.66;5104139;28;20040;-71
2023/02/26 01:24:37;;;;;;;3.20;1.33;;;;;;;2.94;38.44;101326.34;5107051;28;20048;-71
2023/02/26 01:27:06;;;;;;;3.00;1.42;;;;;;;2.94;38.29;101331.75;5089504;28;20036;-72
2023/02/26 01:29:35;;;;;;;3.50;1.65;;;;;;;2.95;38.29;101336.19;5087109;28;20039;-72
2023/02/26 01:32:08;;;;;;;3.10;1.40;;;;;;;2.94;38.34;101340.72;5089680;28;20465;-72
2023/02/26 01:34:42;;;;;;;3.35;1.60;;;;;;;2.93;38.12;101341.69;5087978;28;20066;-73
2023/02/26 01:37:22;;;;;;;3.40;1.40;;;;;;;2.94;38.34;101335.31;5098891;28;20069;-74
2023/02/26 01:40:10;;;;;;;3.58;1.50;;;;;;;2.94;38.31;101337.16;5079306;28;20093;-74
2023/02/26 01:42:40;;;;;;;3.67;1.63;;;;;;;2.91;38.30;101338.16;5092822;28;20501;-71
2023/02/26 01:45:16;;;;;;;4.25;1.40;;;;;;;2.92;38.00;101329.09;5085064;28;20063;-71
2023/02/26 01:47:51;;;;;;;3.30;1.90;;;;;;;2.91;38.07;101334.56;5082373;28;20150;-71
2023/02/26 01:50:24;;;;;;;4.45;1.60;;;;;;;2.86;37.78;101332.13;5106099;28;20074;-72
2023/02/26 01:53:17;;;;;;;3.28;1.50;;;;;;;2.87;37.90;101339.28;5089518;28;20332;-73
2023/02/26 01:55:49;;;;;;;2.70;1.30;;;;;;;2.82;38.26;101337.75;5100067;28;20052;-72
2023/02/26 01:58:18;;;;;;;4.93;1.60;;;;;;;2.80;38.35;101339.66;5107660;28;20372;-71
2023/02/26 02:00:47;;;;;;;4.22;1.52;;;;;;;2.81;38.03;101342.28;5085945;28;20044;-71
2023/02/26 02:03:15;;;;;;;3.17;1.40;;;;;;;2.80;38.27;101345.94;5088967;28;20052;-71
2023/02/26 02:05:48;;;;;;;3.75;1.58;;;;;;;2.81;38.29;101347.69;5106512;28;20039;-71
2023/02/26 02:08:17;;;;;;;4.85;1.60;;;;;;;2.79;38.49;101349.56;5105538;28;20050;-71
2023/02/26 02:10:47;;;;;;;3.72;1.52;;;;;;;2.79;38.41;101344.16;5087697;28;20047;-71
2023/02/26 02:13:35;;;;;;;4.05;1.65;;;;;;;2.82;38.56;101343.16;5107529;28;20093;-73
2023/02/26 02:16:14;;;;;;;3.13;1.50;;;;;;;2.82;38.83;101351.28;5087350;28;20797;-71
2023/02/26 02:18:50;;;;;;;3.58;1.50;;;;;;;2.80;38.46;101356.75;5080735;28;20047;-71
2023/02/26 02:21:36;;;;;;;4.07;1.60;;;;;;;2.81;38.39;101360.31;5106743;28;20043;-72
2023/02/26 02:24:11;;;;;;;4.05;1.45;;;;;;;2.79;38.71;101357.69;5121489;22;20049;-76
2023/02/26 02:26:57;;;;;;;2.47;1.30;;;;;;;2.80;38.52;101364.84;5089002;28;20314;-77
2023/02/26 02:29:50;;;;;;;4.10;1.40;;;;;;;2.80;38.59;101367.56;5087846;28;20287;-76
2023/02/26 02:32:22;;;;;;;2.47;1.40;;;;;;;2.78;38.71;101364.03;5066440;28;20049;-76
2023/02/26 02:34:54;;;;;;;2.15;1.20;;;;;;;2.75;38.57;101372.28;5080234;28;20047;-77
2023/02/26 02:37:27;;;;;;;3.28;1.40;;;;;;;2.75;38.63;101374.97;5087860;28;20044;-77
2023/02/26 02:39:58;;;;;;;;;;;;;;;2.54;39.11;101381.41;5103657;28;20053;-76
2023/02/26 02:42:31;;;;;;;2.90;1.20;;;;;;;2.70;38.75;101379.75;5092888;28;20436;-77
2023/02/26 02:45:03;;;;;;;3.97;1.55;;;;;;;2.71;38.68;101381.50;5096955;28;20044;-77
2023/02/26 02:47:37;;;;;;;2.58;1.40;;;;;;;2.73;38.68;101393.13;5091222;28;20063;-77
2023/02/26 02:50:09;;;;;;;2.85;1.30;;;;;;;2.73;38.81;101394.94;5085278;28;20058;-76
2023/02/26 02:52:42;;;;;;;4.65;1.52;;;;;;;2.69;38.80;101394.19;5112990;28;20047;-77
2023/02/26 02:55:18;;;;;;;3.92;1.40;;;;;;;2.70;38.50;101395.06;5094885;28;20410;-77
2023/02/26 02:57:51;;;;;;;3.20;1.38;;;;;;;2.69;38.61;101401.44;5085970;28;20062;-76
2023/02/26 03:00:22;;;;;;;;;;;;;;;2.45;38.80;101407.00;5087657;28;20049;-76
2023/02/26 03:02:59;;;;;;;2.15;1.27;;;;;;;2.62;38.38;101409.81;5091841;28;19927;-77
2023/02/26 03:05:27;;;;;;;4.07;1.40;;;;;;;2.59;38.64;101404.53;5093094;28;20046;-76
2023/02/26 03:07:58;;;;;;;3.33;1.30;;;;;;;2.59;38.52;101407.25;5087649;28;20032;-77
2023/02/26 03:10:26;;;;;;;3.80;1.30;;;;;;;2.56;38.61;101407.41;5102301;27;20085;-77
2023/02/26 03:12:54;;;;;;;2.85;1.25;;;;;;;2.55;38.66;101416.47;5097073;28;20130;-77
2023/02/26 03:15:34;;;;;;;4.03;1.63;;;;;;;2.56;38.29;101411.94;5087802;28;20063;-77
2023/02/26 03:18:12;;;;;;;2.88;1.40;;;;;;;2.52;38.35;101411.19;5102975;28;20034;-77
2023/02/26 03:20:53;;;;;;;2.40;1.30;;;;;;;2.52;38.48;101413.00;5089603;28;20047;-77
2023/02/26 03:23:25;;;;;;;2.47;1.20;;;;;;;2.48;38.59;101420.38;5088149;28;20586;-77
2023/02/26 03:25:56;;;;;;;2.53;1.20;;;;;;;2.46;38.30;101424.97;5111201;28;20086;-76
2023/02/26 03:28:29;;;;;;;3.42;1.30;;;;;;;2.45;38.48;101434.03;5093900;28;20046;-77
2023/02/26 03:31:05;;;;;;;2.83;1.27;;;;;;;2.45;38.31;101438.53;5084737;28;20040;-76
2023/02/26 03:33:45;;;;;;;2.03;1.27;;;;;;;2.44;38.37;101439.47;5089495;28;20038;-77
2023/02/26 03:36:21;;;;;;;2.42;0.98;;;;;;;2.40;38.63;101443.28;5080918;28;20131;-77
2023/02/26 03:39:05;;;;;;;3.28;1.27;;;;;;;2.37;38.46;101451.50;5076703;28;20035;-77
2023/02/26 03:41:38;;;;;;;3.50;1.30;;;;;;;2.34;38.55;101457.03;5086747;28;21210;-76
2023/02/26 03:44:09;;;;;;;3.38;1.40;;;;;;;2.29;38.53;101457.25;5088587;28;20063;-77
2023/02/26 03:46:44;;;;;;;3.17;1.10;;;;;;;2.24;38.56;101462.88;5093510;28;20474;-77
2023/02/26 03:49:17;;;;;;;2.60;1.10;;;;;;;2.23;38.49;101465.63;5087118;28;20040;-77
2023/02/26 03:51:47;;;;;;;2.80;1.23;;;;;;;2.19;38.72;101466.69;5081966;28;20050;-77
2023/02/26 03:54:42;;;;;;;3.05;1.08;;;;;;;2.14;38.67;101466.03;5097834;28;20077;-77
2023/02/26 03:57:39;;;;;;;3.65;1.10;;;;;;;2.08;38.77;101467.16;5091757;28;20142;-77
2023/02/26 04:00:29;;;;;;;2.10;1.15;;;;;;;2.08;38.82;101471.69;5102199;28;20051;-74
2023/02/26 04:03:02;;;;;;;2.60;1.10;;;;;;;2.06;38.71;101470.88;5109213;28;20086;-77
2023/02/26 04:05:35;;;;;;;3.33;1.20;;;;;;;2.03;38.82;101471.00;5092499;28;20127;-77
2023/02/26 04:08:03;;;;;;;2.65;1.17;;;;;;;2.00;38.82;101472.00;5082029;28;20088;-77
2023/02/26 04:10:35;;;;;;;3.05;1.23;;;;;;;1.99;39.03;101470.25;5093577;28;20047;-77
2023/02/26 04:13:04;;;;;;;2.72;1.17;;;;;;;1.97;39.05;101480.25;5095258;28;20115;-77
2023/02/26 04:15:31;;;;;;;1.90;1.00;;;;;;;1.95;39.02;101484.81;5094608;28;20093;-77
2023/02/26 04:17:59;;;;;;;2.80;1.23;;;;;;;1.94;38.94;101490.28;5110233;28;20047;-77
2023/02/26 04:20:28;;;;;;;3.22;1.20;;;;;;;1.92;39.20;101487.63;5092438;28;20577;-75
2023/02/26 04:22:57;;;;;;;3.53;1.35;;;;;;;1.91;39.17;101485.91;5092166;28;20036;-75
2023/02/26 04:25:25;;;;;;;4.55;1.40;;;;;;;1.88;39.28;101488.72;5081207;28;20040;-75
2023/02/26 04:27:53;;;;;;;1.90;1.05;;;;;;;1.86;39.19;101488.78;5083160;28;20067;-74
2023/02/26 04:30:21;;;;;;;3.67;1.30;;;;;;;1.85;39.17;101488.84;5087891;28;20044;-74
2023/02/26 04:32:49;;;;;;;2.75;1.40;;;;;;;1.82;39.43;101494.38;5089613;28;20426;-75
2023/02/26 04:35:16;;;;;;;3.75;1.40;;;;;;;1.80;39.37;101498.94;5100193;28;20047;-75
2023/02/26 04:37:45;;;;;;;3.85;1.38;;;;;;;1.78;39.39;101504.41;5088135;28;20048;-76
2023/02/26 04:40:14;;;;;;;3.53;1.38;;;;;;;1.76;39.38;101506.28;5091526;28;20043;-75
2023/02/26 04:42:42;;;;;;;3.35;1.50;;;;;;;1.74;39.61;101508.19;5093507;28;20498;-75
2023/02/26 04:45:12;;;;;;;2.78;1.27;;;;;;;1.72;39.54;101504.66;5087700;28;20035;-75
2023/02/26 04:47:40;;;;;;;3.15;1.30;;;;;;;1.71;39.66;101511.00;5098585;28;20040;-75
2023/02/26 04:50:09;;;;;;;3.40;1.30;;;;;;;1.70;39.58;101505.66;5110298;28;20518;-75
2023/02/26 04:52:37;;;;;;;2.58;1.40;;;;;;;1.67;39.64;101522.00;5091364;28;20039;-75
2023/02/26 04:55:07;;;;;;;2.35;1.10;;;;;;;1.66;39.34;101534.59;5085646;28;20050;-75
2023/02/26 04:57:39;;;;;;;4.67;1.33;;;;;;;1.63;39.71;101536.53;5081216;28;20101;-75
2023/02/26 05:00:08;;;;;;;3.47;1.20;;;;;;;1.62;39.55;101545.56;5080743;28;20040;-75
2023/02/26 05:02:38;;;;;;;3.67;1.40;;;;;;;1.58;39.69;101538.53;5085215;28;20036;-75
2023/02/26 05:05:06;;;;;;;3.05;1.33;;;;;;;1.58;39.69;101543.94;5083807;28;20131;-75
2023/02/26 05:07:34;;;;;;;2.78;1.20;;;;;;;1.55;39.71;101544.94;5103070;28;20035;-75
2023/02/26 05:10:02;;;;;;;2.33;1.35;;;;;;;1.55;39.77;101546.75;5076537;28;20524;-74
2023/02/26 05:12:30;;;;;;;4.90;1.50;;;;;;;1.51;39.74;101545.13;5093512;28;20043;-74
2023/02/26 05:14:59;;;;;;;3.55;1.25;;;;;;;1.51;39.69;101550.50;5079050;28;20064;-75
2023/02/26 05:17:27;;;;;;;3.17;1.20;;;;;;;1.48;39.94;101544.28;5085103;28;20054;-76
2023/02/26 05:19:55;;;;;;;2.15;1.20;;;;;;;1.46;39.75;101556.06;5088343;28;20054;-74
2023/02/26 05:22:23;;;;;;;4.00;1.52;;;;;;;1.44;40.01;101552.53;5084571;28;20089;-76
2023/02/26 05:24:51;;;;;;;3.28;1.40;;;;;;;1.41;39.85;101553.56;5088345;28;20051;-74
2023/02/26 05:27:19;;;;;;;2.67;1.30;;;;;;;1.40;39.90;101559.91;5091981;28;20516;-75
2023/02/26 05:29:47;;;;;;;2.20;1.20;;;;;;;1.37;39.78;101557.31;5087872;28;20047;-74
2023/02/26 05:32:17;;;;;;;2.47;1.25;;;;;;;1.37;39.72;101560.00;5091857;28;20040;-75
2023/02/26 05:34:45;;;;;;;2.97;1.17;;;;;;;1.34;40.06;101556.56;5098867;28;20052;-75
2023/02/26 05:37:12;;;;;;;2.72;1.20;;;;;;;1.32;40.21;101559.31;5103571;28;20069;-76
2023/02/26 05:39:40;;;;;;;2.95;1.20;;;;;;;1.31;39.97;101579.13;5087332;28;20525;-75
2023/02/26 05:42:08;;;;;;;3.03;1.20;;;;;;;1.30;39.96;101573.78;5089051;28;20040;-74
2023/02/26 05:44:36;;;;;;;3.42;1.20;;;;;;;1.28;40.19;101578.34;5083898;28;20131;-75
2023/02/26 05:47:04;;;;;;;2.35;1.10;;;;;;;1.27;39.99;101584.66;5103110;28;20056;-74
2023/02/26 05:49:33;;;;;;;2.65;1.20;;;;;;;1.26;39.88;101582.94;5106889;28;20046;-74
2023/02/26 05:52:01;;;;;;;4.35;2.03;;;;;;;1.24;40.06;101590.19;5092396;28;20043;-74
2023/02/26 05:54:29;;;;;;;1.63;1.15;;;;;;;1.21;40.00;101591.19;5085587;28;20064;-74
2023/02/26 05:56:57;;;;;;;3.22;1.17;;;;;;;1.20;40.12;101600.19;5083076;28;20048;-74
2023/02/26 05:59:25;;;;;;;3.85;1.23;;;;;;;1.18;40.10;101598.53;5095157;28;20051;-75
2023/02/26 06:01:53;;;;;;;3.38;1.33;;;;;;;1.17;40.06;101607.53;5088596;28;20096;-75
2023/02/26 06:04:20;;;;;;;3.92;1.60;;;;;;;1.15;39.84;101609.41;5089455;28;20040;-75
2023/02/26 06:06:50;;;;;;;3.03;1.15;;;;;;;1.14;39.95;101607.63;5104550;28;20048;-77
2023/02/26 06:09:17;;;;;;;3.20;1.02;;;;;;;1.09;40.09;101619.44;5101960;28;20048;-74
2023/02/26 06:11:45;;;;;;;2.30;1.10;;;;;;;1.09;39.88;101624.84;5086717;28;20047;-74
2023/02/26 06:14:13;;;;;;;2.85;1.20;;;;;;;1.08;39.91;101624.94;5092927;28;20376;-75
2023/02/26 06:16:41;;;;;;;1.80;1.08;;;;;;;1.06;40.00;101626.78;5091871;28;20051;-75
2023/02/26 06:19:09;;;;;;;2.67;1.20;;;;;;;1.05;39.97;101630.41;5105008;28;20043;-74
2023/02/26 06:21:36;;;;;;;3.63;1.30;;;;;;;1.02;40.10;101641.28;5094022;28;20048;-74
2023/02/26 06:24:07;;;;;;;3.90;1.08;;;;;;;1.02;40.01;101644.00;5103867;28;20078;-74
2023/02/26 06:26:35;;;;;;;2.33;1.20;;;;;;;0.97;39.76;101638.78;5109420;28;20060;-75
2023/02/26 06:29:02;;;;;;;3.10;1.30;;;;;;;0.95;39.99;101653.22;5103278;28;20047;-75
2023/02/26 06:31:30;;;;;;;4.70;1.40;;;;;;;0.94;39.88;101664.94;5091902;28;20055;-75
2023/02/26 06:33:58;;;;;;;3.70;1.20;;;;;;;0.91;39.79;101662.38;5086139;28;20127;-74
2023/02/26 06:36:26;;;;;;;3.25;1.10;;;;;;;0.89;39.78;101670.50;5087110;28;20101;-74
2023/02/26 06:38:54;;;;;;;2.67;1.42;;;;;;;0.87;39.72;101672.34;5101164;28;20051;-75
2023/02/26 06:41:23;;;;;;;3.58;1.10;;;;;;;0.86;39.78;101670.56;5109933;28;20054;-75
2023/02/26 06:43:51;;;;;;;2.63;1.13;;;;;;;0.82;39.91;101671.63;5090308;28;20046;-75
2023/02/26 06:46:19;;;;;;;2.30;1.17;;;;;;;0.79;39.84;101674.41;5108267;28;20557;-75
2023/02/26 06:48:47;;;;;;;3.15;1.20;;;;;;;0.78;39.93;101674.44;5090621;28;20094;-75
2023/02/26 06:51:14;;;;;;;2.97;1.13;;;;;;;0.78;40.03;101682.53;5091438;28;20052;-75
2023/02/26 06:53:42;;;;;;;2.70;1.17;;;;;;;0.75;40.35;101688.94;5103544;28;20044;-75
2023/02/26 06:56:10;;;;;;;2.38;1.10;;;;;;;0.76;40.62;101693.41;5111138;28;20047;-75
2023/02/26 06:58:39;;;;;;;3.58;1.20;;;;;;;0.78;41.00;101699.59;5086359;28;20422;-75
2023/02/26 07:01:07;;;;;;;3.38;1.08;;;;;;;0.85;41.11;101700.28;5093473;28;20044;-74
2023/02/26 07:03:35;;;;;;;2.35;1.17;;;;;;;0.93;41.58;101704.50;5111764;28;20114;-74
2023/02/26 07:06:04;;;;;;;3.40;1.15;;;;;;;1.02;41.69;101709.56;5104509;28;20051;-74
2023/02/26 07:08:51;;;;;;;3.03;1.50;;;;;;;1.18;41.86;101711.75;5086018;28;20044;-75
2023/02/26 07:11:19;;;;;;;4.63;1.50;;;;;;;1.32;42.20;101710.31;5106961;28;20069;-75
2023/02/26 07:13:50;;;;;;;3.03;1.30;;;;;;;1.53;41.76;101729.34;5087370;28;20078;-75
2023/02/26 07:16:18;;;;;;;4.85;1.80;;;;;;;1.65;41.83;101737.91;5113340;28;20705;-75
2023/02/26 07:18:46;;;;;;;1.63;1.00;;;;;;;1.83;41.85;101749.84;5097528;28;20072;-74
2023/02/26 07:21:14;;;;;;;2.30;1.20;;;;;;;2.00;41.40;101741.97;5088228;28;20047;-75
2023/02/26 07:23:41;;;;;;;3.55;1.30;;;;;;;2.14;41.28;101745.03;5085704;28;20050;-75
2023/02/26 07:26:09;;;;;;;3.83;1.20;;;;;;;2.27;41.28;101756.22;5106680;28;20043;-75
2023/02/26 07:28:37;;;;;;;2.72;1.33;;;;;;;2.44;41.00;101751.06;5103268;28;20047;-75
2023/02/26 07:31:06;;;;;;;3.40;1.30;;;;;;;2.61;40.92;101755.78;5090736;28;20043;-76
2023/02/26 07:33:34;;;;;;;2.03;1.00;;;;;;;2.75;41.07;101768.72;5094610;28;20032;-76
2023/02/26 07:36:02;;;;;;;2.83;1.17;;;;;;;2.89;40.84;101764.53;5101172;28;20123;-75
2023/02/26 07:38:30;;;;;;;3.10;1.20;;;;;;;3.03;40.58;101766.66;5096384;28;20059;-75
2023/02/26 07:40:58;;;;;;;3.78;1.52;;;;;;;3.19;40.14;101769.59;5095357;28;20122;-76
2023/02/26 07:43:26;;;;;;;3.58;1.17;;;;;;;3.30;39.91;101773.63;5096926;28;20050;-75
2023/02/26 07:45:54;;;;;;;3.42;1.10;;;;;;;3.44;39.84;101774.88;5104961;28;20457;-76
2023/02/26 07:48:23;;;;;;;4.15;1.30;;;;;;;3.47;38.40;101772.06;5103460;28;20554;-77
2023/02/26 07:50:51;;;;;;;3.65;1.58;;;;;;;3.61;39.33;101780.44;5091551;28;20036;-76
2023/02/26 07:53:20;;;;;;;3.08;1.27;;;;;;;3.64;38.97;101785.72;5103284;28;20039;-76
2023/02/26 07:55:48;;;;;;;3.83;1.20;;;;;;;3.62;38.15;101796.63;5094351;28;20459;-76
2023/02/26 07:58:17;;;;;;;3.20;1.40;;;;;;;3.69;38.05;101789.97;5102377;28;20040;-76
2023/02/26 08:00:45;;;;;;;2.03;1.20;;;;;;;3.76;38.10;101796.00;5084075;28;20122;-76
2023/02/26 08:03:14;;;;;;;2.63;1.33;;;;;;;3.76;37.64;101812.25;5106765;28;20035;-76
2023/02/26 08:05:43;;;;;;;1.98;1.10;;;;;;;3.81;37.25;101814.75;5098874;28;20064;-76
2023/02/26 08:08:11;;;;;;;2.15;1.13;;;;;;;3.86;37.75;101816.31;5084582;28;20093;-76
2023/02/26 08:10:40;;;;;;;3.42;1.40;;;;;;;3.83;37.21;101820.97;5096934;28;20044;-76
2023/02/26 08:13:09;;;;;;;3.35;1.27;;;;;;;3.85;37.22;101816.38;5088653;28;20379;-75
2023/02/26 08:15:37;;;;;;;2.70;1.10;;;;;;;3.83;37.04;101821.84;5105897;28;20225;-76
2023/02/26 08:18:05;;;;;;;3.45;1.20;;;;;;;3.82;37.13;101822.78;5084535;28;20134;-76
2023/02/26 08:20:33;;;;;;;3.45;1.38;;;;;;;3.78;36.95;101819.38;5091913;28;20100;-76
2023/02/26 08:23:02;;;;;;;2.20;1.10;;;;;;;3.75;36.71;101821.31;5090309;28;20464;-76
2023/02/26 08:25:30;;;;;;;3.60;1.30;;;;;;;3.69;36.81;101825.19;5081901;28;20445;-76
2023/02/26 08:27:58;;;;;;;2.03;0.90;;;;;;;3.66;36.87;101825.28;5100384;28;20047;-76
2023/02/26 08:30:26;;;;;;;3.92;1.23;;;;;;;3.63;36.89;101825.44;5090978;28;20542;-76
2023/02/26 08:32:54;;;;;;;3.33;1.20;;;;;;;3.60;37.10;101828.28;5084016;28;20564;-76
2023/02/26 08:35:21;;;;;;;3.63;1.30;;;;;;;3.54;36.98;101825.84;5083093;28;20097;-76
2023/02/26 08:37:49;;;;;;;3.53;1.55;;;;;;;3.48;36.75;101834.22;5091709;28;20105;-76
2023/02/26 08:40:18;;;;;;;3.15;1.50;;;;;;;3.43;36.49;101830.81;5094064;28;20043;-76
2023/02/26 08:42:46;;;;;;;3.45;1.23;;;;;;;3.31;36.44;101844.88;5085335;28;20059;-76
2023/02/26 08:45:15;;;;;;;4.40;1.52;;;;;;;3.32;36.58;101847.50;5108931;28;20063;-76
2023/02/26 08:47:44;;;;;;;3.38;1.30;;;;;;;3.29;36.74;101846.72;5103252;28;20096;-76
2023/02/26 08:50:24;;;;;;;3.13;1.33;;;;;;;3.24;36.81;101860.44;5097869;28;20575;-76
2023/02/26 08:52:52;;;;;;;2.55;1.30;;;;;;;3.18;36.84;101868.81;5091066;28;20040;-76
2023/02/26 08:55:21;;;;;;;4.45;1.60;;;;;;;3.10;36.23;101867.34;5082680;28;20048;-76
2023/02/26 08:57:49;;;;;;;4.60;1.50;;;;;;;3.03;36.63;101866.72;5096676;28;20044;-76
2023/02/26 09:00:18;;;;;;;3.35;1.30;;;;;;;3.07;36.64;101873.75;5096607;28;20122;-76
2023/02/26 09:02:46;;;;;;;3.83;1.42;;;;;;;3.02;36.75;101870.38;5080265;28;20046;-76
2023/02/26 09:05:14;;;;;;;3.38;1.27;;;;;;;2.98;36.95;101875.03;5104493;28;20526;-76
2023/02/26 09:07:43;;;;;;;2.75;1.25;;;;;;;3.00;36.92;101883.06;5095701;28;20047;-76
2023/02/26 09:10:13;;;;;;;2.83;1.30;;;;;;;3.00;36.89;101889.34;5105516;28;20044;-76
2023/02/26 09:12:42;;;;;;;4.63;1.80;;;;;;;2.99;36.66;101893.00;5100801;28;20042;-76
2023/02/26 09:15:12;;;;;;;5.13;1.50;;;;;;;3.01;36.80;101892.94;5102407;28;20048;-76
2023/02/26 09:17:41;;;;;;;2.97;1.20;;;;;;;3.03;36.87;101897.34;5080174;28;20503;-76
2023/02/26 09:20:10;;;;;;;3.85;1.27;;;;;;;3.11;37.13;101901.56;5096002;28;20579;-76
2023/02/26 09:22:38;;;;;;;2.83;1.10;;;;;;;3.05;36.78;101904.53;5083737;28;20143;-76
2023/02/26 09:25:06;;;;;;;3.15;1.25;;;;;;;3.04;36.27;101906.34;5103094;28;20096;-76
2023/02/26 09:27:35;;;;;;;3.38;1.10;;;;;;;3.09;36.48;101903.44;5083207;28;20074;-76
2023/02/26 09:30:05;;;;;;;2.55;1.20;;;;;;;3.13;36.17;101902.41;5083945;28;20058;-76
2023/02/26 09:32:33;;;;;;;2.13;1.00;;;;;;;3.19;36.68;101907.56;5091190;28;20100;-76
2023/02/26 09:35:01;;;;;;;2.75;1.15;;;;;;;3.15;36.33;101909.53;5086256;28;20044;-76
2023/02/26 09:37:29;;;;;;;2.13;1.30;;;;;;;3.18;36.12;101900.38;5102121;28;20036;-76
2023/02/26 09:39:57;;;;;;;2.67;1.20;;;;;;;3.28;36.29;101912.59;5089967;28;20387;-76
2023/02/26 09:42:36;;;;;;;2.25;1.10;;;;;;;3.32;34.77;101908.84;5089405;28;20103;-76
2023/02/26 09:45:12;;;;;;;2.53;1.20;;;;;;;3.38;35.38;101928.44;5088557;28;20039;-75
2023/02/26 09:47:45;;;;;;;2.58;1.10;;;;;;;3.36;34.93;101929.44;5105440;28;20044;-75
2023/02/26 09:50:18;;;;;;;2.38;1.10;;;;;;;3.32;34.80;101925.97;5091709;28;20068;-76
2023/02/26 09:52:53;;;;;;;2.63;1.08;;;;;;;3.35;33.94;101939.38;5088614;28;20047;-76
2023/02/26 09:55:28;;;;;;;2.53;1.23;;;;;;;3.38;33.76;101933.84;5107931;28;20063;-75
2023/02/26 09:57:59;;;;;;;2.50;1.15;;;;;;;3.49;35.50;101937.94;5105877;28;20043;-75
2023/02/26 10:00:38;;;;;;;1.95;0.93;;;;;;;3.51;33.94;101936.94;5101525;28;20130;-75
2023/02/26 10:03:19;;;;;;;3.10;1.17;;;;;;;3.43;32.69;101940.88;5093604;28;20048;-75
2023/02/26 10:06:04;;;;;;;1.70;1.00;;;;;;;3.45;33.54;101945.31;5094374;28;20556;-75
2023/02/26 10:08:42;;;;;;;2.97;1.20;;;;;;;3.49;32.88;101951.47;5086044;28;20052;-75
2023/02/26 10:11:18;;;;;;;2.53;1.30;;;;;;;3.48;34.12;101949.72;5087615;28;20479;-76
2023/02/26 10:13:49;;;;;;;3.53;1.15;;;;;;;3.45;34.08;101956.13;5102818;28;20528;-77
2023/02/26 10:16:30;;;;;;;2.20;1.17;;;;;;;3.37;32.81;101969.09;5090532;28;20047;-77
2023/02/26 10:19:04;;;;;;;2.33;1.38;;;;;;;3.44;34.18;101962.47;5083657;28;20046;-77
2023/02/26 10:21:39;;;;;;;4.05;1.50;;;;;;;3.47;34.00;101967.78;5091050;28;20040;-77
2023/02/26 10:24:13;;;;;;;2.88;1.50;;;;;;;3.54;33.87;101968.41;5100296;28;20487;-76
2023/02/26 10:26:45;;;;;;;3.72;1.63;;;;;;;3.48;33.01;101977.69;5079065;28;20448;-76
2023/02/26 10:29:21;;;;;;;2.90;1.38;;;;;;;3.48;32.62;101968.66;5101205;28;20131;-77
2023/02/26 10:32:03;;;;;;;3.63;1.30;;;;;;;3.52;32.28;101967.59;5093317;28;20503;-77
2023/02/26 10:34:36;;;;;;;3.63;1.27;;;;;;;3.50;33.26;101967.63;5106822;28;20587;-77
2023/02/26 10:37:15;;;;;;;2.85;1.35;;;;;;;3.30;32.37;101964.84;5087939;28;20146;-77
2023/02/26 10:39:50;;;;;;;3.55;1.40;;;;;;;3.26;31.52;101965.88;5082617;28;20498;-76
2023/02/26 10:42:22;;;;;;;2.75;1.33;;;;;;;3.23;32.28;101976.84;5108437;28;20563;-77
2023/02/26 10:45:05;;;;;;;3.00;1.30;;;;;;;3.25;32.03;101978.53;5095557;28;20507;-77
2023/02/26 10:47:46;;;;;;;3.65;1.20;;;;;;;3.23;32.47;101971.44;5081227;28;20499;-77
2023/02/26 10:50:16;;;;;;;1.90;1.20;;;;;;;3.29;33.35;101977.47;5098880;28;20059;-77
2023/02/26 10:52:45;;;;;;;2.58;1.20;;;;;;;3.16;32.83;101978.00;5090006;28;20479;-77
2023/02/26 10:55:32;;;;;;;5.20;1.50;;;;;;;3.20;30.81;101972.44;5091716;28;20109;-77
2023/02/26 10:58:05;;;;;;;2.90;1.17;;;;;;;3.15;31.66;101979.84;5104269;28;20046;-77
2023/02/26 11:00:35;;;;;;;2.17;1.10;;;;;;;3.22;33.07;101980.50;5104347;28;20126;-77
2023/02/26 11:03:07;;;;;;;3.50;1.60;;;;;;;3.34;33.11;101988.13;5090248;28;20062;-77
2023/02/26 11:05:35;;;;;;;2.43;1.10;;;;;;;3.29;33.20;101977.47;5104868;28;20032;-77
2023/02/26 11:08:05;;;;;;;2.38;1.30;;;;;;;3.35;33.01;101968.25;5094744;28;20064;-77
2023/02/26 11:10:41;;;;;;;2.15;1.10;;;;;;;3.37;31.42;101985.31;5087057;28;20553;-77
2023/02/26 11:13:10;;;;;;;2.25;1.20;;;;;;;3.42;33.04;101987.84;5086565;28;20147;-76
2023/02/26 11:15:38;;;;;;;1.85;0.98;;;;;;;3.53;33.07;101981.06;5084832;28;20040;-75
2023/02/26 11:18:15;;;;;;;2.65;0.90;;;;;;;3.59;31.52;101983.50;5093896;28;20054;-75
2023/02/26 11:20:45;;;;;;;2.63;1.10;;;;;;;3.69;32.75;101989.44;5082362;28;20074;-75
2023/02/26 11:23:19;;;;;;;1.83;0.90;;;;;;;3.71;32.06;101979.44;5109757;28;20093;-74
2023/02/26 11:25:53;;;;;;;1.65;1.00;;;;;;;3.77;32.11;101977.34;5099492;28;20499;-75
2023/02/26 11:28:24;;;;;;;2.38;1.02;;;;;;;3.79;32.35;101977.28;5088589;28;20071;-75
2023/02/26 11:30:53;;;;;;;2.05;1.08;;;;;;;3.90;32.71;101985.81;5089147;28;20047;-75
2023/02/26 11:33:29;;;;;;;2.72;0.95;;;;;;;3.99;31.32;101985.44;5112550;28;20035;-75
2023/02/26 11:36:01;;;;;;;2.30;1.10;;;;;;;4.06;32.39;101981.53;5103040;28;20042;-75
2023/02/26 11:38:29;;;;;;;1.45;0.80;;;;;;;4.16;32.77;101980.19;5093244;28;20050;-75
2023/02/26 11:40:58;;;;;;;2.53;0.93;;;;;;;4.25;32.80;101991.56;5100890;28;20455;-75
2023/02/26 11:43:33;;;;;;;1.95;0.90;;;;;;;4.26;31.81;101996.06;5094611;27;20051;-75
2023/02/26 11:46:04;;;;;;;1.23;1.00;;;;;;;4.31;31.78;101992.19;5089754;28;20051;-75
2023/02/26 11:48:40;;;;;;;2.40;0.90;;;;;;;4.33;30.59;101998.44;5091235;28;20071;-74
2023/02/26 11:51:15;;;;;;;1.48;0.93;;;;;;;4.44;31.06;101990.72;5091724;28;20139;-75
2023/02/26 11:53:48;;;;;;;1.30;0.75;;;;;;;4.37;29.96;101991.06;5099044;28;20048;-76